Time;durP1;ratioP1;P1;durP2;ratioP2;P2;SDS_P1;SDS_P2;PMS_P1;PMS_P2;Temp;Humidity;BMP_temperature;BMP_pressure;BME280_temperature;BME280_humidity;BME280_pressure;Samples;Min_cycle;Max_cycle;Signal;HPM_P1;HPM_P2
2021/11/22 00:00:39;;;;;;;6.00;2.88;;;5.20;99.90;;;;;;5107888;28;20164;-43
2021/11/22 00:03:05;;;;;;;6.38;2.78;;;5.20;99.90;;;;;;5110764;28;20486;-42
2021/11/22 00:05:31;;;;;;;8.27;3.22;;;5.20;99.90;;;;;;5112305;28;20016;-43
2021/11/22 00:07:57;;;;;;;6.10;3.05;;;5.10;99.90;;;;;;5112684;28;20034;-43
2021/11/22 00:10:23;;;;;;;7.32;3.20;;;5.20;99.90;;;;;;5107513;28;20062;-42
2021/11/22 00:12:49;;;;;;;6.20;2.80;;;5.10;99.90;;;;;;5101605;28;20089;-43
2021/11/22 00:15:16;;;;;;;6.95;3.20;;;5.00;99.90;;;;;;5098382;28;20793;-43
2021/11/22 00:17:42;;;;;;;8.30;3.13;;;5.00;99.90;;;;;;5103569;27;20532;-43
2021/11/22 00:20:12;;;;;;;5.82;2.97;;;5.00;99.90;;;;;;5111327;28;20110;-43
2021/11/22 00:22:38;;;;;;;8.43;3.03;;;5.00;99.90;;;;;;5112145;28;20024;-43
2021/11/22 00:25:05;;;;;;;8.95;3.03;;;4.90;99.90;;;;;;5110957;28;20019;-43
2021/11/22 00:27:31;;;;;;;8.18;3.42;;;4.90;99.90;;;;;;5112028;28;20066;-43
2021/11/22 00:29:57;;;;;;;4.45;2.35;;;4.90;99.90;;;;;;5111410;28;20020;-43
2021/11/22 00:32:23;;;;;;;5.75;3.35;;;4.90;99.90;;;;;;5112278;28;20019;-43
2021/11/22 00:34:54;;;;;;;7.22;2.50;;;4.80;99.90;;;;;;5110509;28;20020;-45
2021/11/22 00:37:23;;;;;;;4.72;2.78;;;4.80;99.90;;;;;;5111947;28;20446;-44
2021/11/22 00:39:48;;;;;;;8.02;3.60;;;4.80;99.90;;;;;;5109649;28;20108;-44
2021/11/22 00:42:14;;;;;;;5.22;3.22;;;4.70;99.90;;;;;;5110101;28;20511;-45
2021/11/22 00:44:40;;;;;;;7.75;3.50;;;4.70;99.90;;;;;;5111564;28;20031;-44
2021/11/22 00:47:08;;;;;;;6.05;3.13;;;4.70;99.90;;;;;;5102338;28;20027;-44
2021/11/22 00:49:35;;;;;;;7.63;3.83;;;4.80;99.90;;;;;;5110879;28;20442;-43
2021/11/22 00:52:01;;;;;;;9.35;3.58;;;4.90;99.90;;;;;;5110035;28;20019;-43
2021/11/22 00:54:28;;;;;;;6.93;3.90;;;4.90;99.90;;;;;;5090241;28;20063;-44
2021/11/22 00:56:54;;;;;;;6.07;3.33;;;5.00;99.90;;;;;;5088718;28;20178;-44
2021/11/22 00:59:20;;;;;;;9.20;3.45;;;5.00;99.90;;;;;;5088122;28;20389;-43
2021/11/22 01:01:47;;;;;;;4.00;3.20;;;5.00;99.90;;;;;;5090128;28;20024;-45
2021/11/22 01:04:13;;;;;;;6.22;3.75;;;5.00;99.90;;;;;;5090485;28;20024;-44
2021/11/22 01:06:39;;;;;;;9.13;4.63;;;5.00;99.90;;;;;;5090299;28;20020;-43
2021/11/22 01:09:05;;;;;;;7.53;4.00;;;5.00;99.90;;;;;;5089828;28;20473;-42
2021/11/22 01:11:31;;;;;;;7.95;3.95;;;5.00;99.90;;;;;;5090684;28;20466;-43
2021/11/22 01:13:57;;;;;;;6.57;3.35;;;5.00;99.90;;;;;;5089972;28;20630;-43
2021/11/22 01:16:23;;;;;;;6.55;3.72;;;5.10;99.90;;;;;;5094601;28;20032;-44
2021/11/22 01:18:49;;;;;;;7.13;3.20;;;5.10;99.90;;;;;;5091795;28;20020;-43
2021/11/22 01:21:14;;;;;;;11.25;4.10;;;5.10;99.90;;;;;;5090534;28;20054;-43
2021/11/22 01:23:40;;;;;;;6.13;3.83;;;5.20;99.90;;;;;;5089791;28;20107;-43
2021/11/22 01:26:06;;;;;;;8.80;3.63;;;5.20;99.90;;;;;;5089939;28;20389;-43
2021/11/22 01:28:31;;;;;;;5.10;3.47;;;5.20;99.90;;;;;;5089289;28;20577;-42
2021/11/22 01:30:57;;;;;;;7.03;3.50;;;5.20;99.90;;;;;;5089692;28;20039;-44
2021/11/22 01:33:24;;;;;;;4.75;3.40;;;5.30;99.90;;;;;;5090186;28;20035;-42
2021/11/22 01:35:50;;;;;;;5.25;3.63;;;5.30;99.90;;;;;;5090380;28;20043;-45
2021/11/22 01:38:16;;;;;;;5.28;3.78;;;5.20;99.90;;;;;;5090153;28;20020;-43
2021/11/22 01:40:43;;;;;;;10.77;3.08;;;5.30;99.90;;;;;;5090004;28;20499;-42
2021/11/22 01:43:16;;;;;;;4.18;3.03;;;5.30;99.90;;;;;;5088917;28;20093;-44
2021/11/22 01:45:47;;;;;;;6.38;3.50;;;5.20;99.90;;;;;;5095925;28;20015;-42
2021/11/22 01:48:15;;;;;;;5.95;3.40;;;5.30;99.90;;;;;;5102304;28;20011;-43
2021/11/22 01:50:42;;;;;;;5.03;3.33;;;5.30;99.90;;;;;;5110074;28;20035;-42
2021/11/22 01:53:07;;;;;;;4.18;2.90;;;5.30;99.90;;;;;;5110751;28;20011;-42
2021/11/22 01:55:33;;;;;;;5.72;3.05;;;5.30;99.90;;;;;;5110791;28;20459;-42
2021/11/22 01:58:00;;;;;;;6.13;2.85;;;5.30;99.90;;;;;;5108958;28;20031;-43
2021/11/22 02:00:39;;;;;;;5.07;2.97;;;5.20;99.90;;;;;;5108313;28;20024;-43
2021/11/22 02:03:06;;;;;;;3.83;3.00;;;5.20;99.90;;;;;;5108796;28;20032;-42
2021/11/22 02:05:33;;;;;;;4.35;2.85;;;5.20;99.90;;;;;;5110024;28;20031;-41
2021/11/22 02:07:59;;;;;;;4.22;2.80;;;5.10;99.90;;;;;;5109938;28;20031;-42
2021/11/22 02:10:25;;;;;;;6.47;3.00;;;5.10;99.90;;;;;;5109374;28;20039;-42
2021/11/22 02:12:52;;;;;;;5.15;2.97;;;5.00;99.90;;;;;;5109784;28;20227;-42
2021/11/22 02:15:21;;;;;;;3.47;2.58;;;5.00;99.90;;;;;;5106388;28;20157;-43
2021/11/22 02:17:49;;;;;;;3.47;2.60;;;4.90;99.90;;;;;;5096432;28;20465;-43
2021/11/22 02:20:20;;;;;;;4.68;2.58;;;5.00;99.90;;;;;;5108093;28;20023;-42
2021/11/22 02:22:47;;;;;;;4.40;2.78;;;4.90;99.90;;;;;;5109780;28;20388;-42
2021/11/22 02:25:15;;;;;;;3.40;2.50;;;4.90;99.90;;;;;;5109681;28;20024;-43
2021/11/22 02:27:43;;;;;;;3.30;2.60;;;4.80;99.90;;;;;;5109980;28;20028;-42
2021/11/22 02:30:10;;;;;;;4.72;3.10;;;4.80;99.90;;;;;;5109033;28;20019;-42
2021/11/22 02:32:38;;;;;;;3.00;1.98;;;4.80;99.90;;;;;;5109344;28;20144;-43
2021/11/22 02:35:06;;;;;;;8.30;2.88;;;4.70;99.90;;;;;;5109451;28;20020;-42
2021/11/22 02:37:32;;;;;;;2.35;2.08;;;4.70;99.90;;;;;;5109310;28;20030;-42
2021/11/22 02:39:57;;;;;;;4.18;2.53;;;4.70;99.90;;;;;;5107257;28;20032;-42
2021/11/22 02:42:25;;;;;;;3.65;2.30;;;4.70;99.90;;;;;;5109304;28;20027;-43
2021/11/22 02:44:51;;;;;;;7.18;2.92;;;4.70;99.90;;;;;;5107717;28;20031;-43
2021/11/22 02:47:18;;;;;;;3.20;2.78;;;4.80;99.90;;;;;;5097233;28;20035;-44
2021/11/22 02:49:43;;;;;;;4.50;2.30;;;4.80;99.90;;;;;;5103168;28;20022;-43
2021/11/22 02:52:09;;;;;;;5.60;2.90;;;4.80;99.90;;;;;;5109134;28;20452;-42
2021/11/22 02:54:35;;;;;;;3.05;2.40;;;4.80;99.90;;;;;;5107957;28;20024;-43
2021/11/22 02:57:01;;;;;;;3.58;2.30;;;4.80;99.90;;;;;;5109217;28;20034;-43
2021/11/22 02:59:27;;;;;;;5.55;2.33;;;4.80;99.90;;;;;;5108559;28;20357;-44
2021/11/22 03:01:53;;;;;;;3.78;2.83;;;4.90;99.90;;;;;;5108885;28;20020;-43
2021/11/22 03:04:19;;;;;;;1.98;1.77;;;4.90;99.90;;;;;;5109056;28;20054;-43
2021/11/22 03:06:45;;;;;;;3.60;2.10;;;4.90;99.90;;;;;;5107720;28;20074;-43
2021/11/22 03:09:12;;;;;;;4.05;1.88;;;5.00;99.90;;;;;;5108353;28;20095;-43
2021/11/22 03:11:38;;;;;;;2.75;1.90;;;5.00;99.90;;;;;;5109054;28;20358;-43
2021/11/22 03:14:03;;;;;;;1.98;1.50;;;5.00;99.90;;;;;;5109195;28;20019;-43
2021/11/22 03:16:30;;;;;;;3.05;1.48;;;5.10;99.90;;;;;;5093849;28;20024;-43
2021/11/22 03:18:57;;;;;;;1.92;1.70;;;5.10;99.90;;;;;;5099881;28;20047;-43
2021/11/22 03:21:23;;;;;;;3.08;1.77;;;5.00;99.90;;;;;;5108996;28;20019;-42
2021/11/22 03:23:48;;;;;;;3.80;1.60;;;5.00;99.90;;;;;;5107891;28;20054;-43
2021/11/22 03:26:14;;;;;;;3.10;1.63;;;4.90;99.90;;;;;;5109382;28;20473;-43
2021/11/22 03:28:40;;;;;;;2.40;1.65;;;4.90;99.90;;;;;;5108545;28;20019;-42
2021/11/22 03:31:06;;;;;;;3.50;1.50;;;4.90;99.90;;;;;;5108737;28;20077;-42
2021/11/22 03:33:32;;;;;;;2.53;1.50;;;4.80;99.90;;;;;;5108985;28;20262;-42
2021/11/22 03:35:58;;;;;;;2.40;1.67;;;4.80;99.90;;;;;;5108772;28;20035;-42
2021/11/22 03:38:25;;;;;;;2.58;1.52;;;4.80;99.90;;;;;;5111072;28;20111;-42
2021/11/22 03:40:54;;;;;;;1.52;1.20;;;4.70;99.90;;;;;;5111161;28;20122;-44
2021/11/22 03:43:36;;;;;;;2.88;2.40;;;4.80;99.90;;;;;;5113002;28;20457;-43
2021/11/22 03:46:02;;;;;;;2.15;1.55;;;4.70;99.90;;;;;;5104437;28;20073;-41
2021/11/22 03:48:30;;;;;;;1.30;1.17;;;4.70;99.90;;;;;;5103375;28;20351;-41
2021/11/22 03:50:55;;;;;;;2.88;1.63;;;4.70;99.90;;;;;;5112797;28;20250;-42
2021/11/22 03:53:21;;;;;;;3.45;1.67;;;4.60;99.90;;;;;;5112514;28;20107;-41
2021/11/22 03:55:47;;;;;;;2.67;1.73;;;4.60;99.90;;;;;;5112739;28;20023;-42
2021/11/22 03:58:12;;;;;;;2.38;1.60;;;4.60;99.90;;;;;;5112401;28;20038;-45
2021/11/22 04:00:38;;;;;;;3.38;1.38;;;4.60;99.90;;;;;;5111611;28;20031;-43
2021/11/22 04:03:04;;;;;;;3.78;1.67;;;4.70;99.90;;;;;;5112369;28;20141;-42
2021/11/22 04:05:29;;;;;;;3.92;2.10;;;4.70;99.90;;;;;;5111363;28;20496;-42
2021/11/22 04:07:55;;;;;;;4.65;1.70;;;4.70;99.90;;;;;;5112372;28;20023;-42
2021/11/22 04:10:21;;;;;;;2.67;1.50;;;4.70;99.90;;;;;;5111659;28;20039;-43
2021/11/22 04:12:46;;;;;;;3.30;1.65;;;4.70;99.90;;;;;;5112260;28;20023;-42
2021/11/22 04:15:12;;;;;;;2.20;1.67;;;4.80;99.90;;;;;;5111804;28;20023;-42
2021/11/22 04:17:38;;;;;;;6.00;2.78;;;4.80;99.90;;;;;;5091976;28;20477;-42
2021/11/22 04:20:05;;;;;;;2.90;2.42;;;4.80;99.90;;;;;;5108732;28;20027;-43
2021/11/22 04:22:30;;;;;;;2.92;2.47;;;4.80;99.90;;;;;;5112360;28;20436;-43
2021/11/22 04:24:56;;;;;;;3.65;2.58;;;4.80;99.90;;;;;;5112146;28;20031;-43
2021/11/22 04:27:21;;;;;;;5.10;3.28;;;4.80;99.90;;;;;;5111893;28;20055;-43
2021/11/22 04:29:47;;;;;;;5.22;3.35;;;4.80;99.90;;;;;;5111485;28;20418;-42
2021/11/22 04:32:13;;;;;;;5.07;3.25;;;4.80;99.90;;;;;;5111763;28;20023;-42
2021/11/22 04:34:38;;;;;;;5.70;3.55;;;4.80;99.90;;;;;;5110624;28;20445;-42
2021/11/22 04:37:06;;;;;;;4.78;3.22;;;4.80;99.90;;;;;;5111919;28;20032;-43
2021/11/22 04:39:33;;;;;;;6.70;3.85;;;4.80;99.90;;;;;;5111159;28;20401;-42
2021/11/22 04:41:59;;;;;;;4.65;3.08;;;4.80;99.90;;;;;;5110808;28;20023;-43
2021/11/22 04:44:25;;;;;;;6.45;3.33;;;4.80;99.90;;;;;;5107390;28;20073;-42
2021/11/22 04:46:50;;;;;;;8.13;3.42;;;4.80;99.90;;;;;;5102268;28;20488;-43
2021/11/22 04:49:16;;;;;;;4.32;3.00;;;4.90;99.90;;;;;;5104550;28;20389;-43
2021/11/22 04:51:41;;;;;;;4.95;3.30;;;4.80;99.90;;;;;;5111800;27;20072;-42
2021/11/22 04:54:07;;;;;;;6.03;3.15;;;4.80;99.90;;;;;;5111500;28;20020;-42
2021/11/22 04:56:34;;;;;;;4.78;3.58;;;4.80;99.90;;;;;;5111289;28;20527;-44
2021/11/22 04:59:00;;;;;;;4.45;3.25;;;4.80;99.90;;;;;;5110772;28;20023;-42
2021/11/22 05:01:25;;;;;;;5.45;3.40;;;4.80;99.90;;;;;;5110926;28;20035;-43
2021/11/22 05:03:51;;;;;;;4.65;3.05;;;4.80;99.90;;;;;;5111187;28;20083;-43
2021/11/22 05:06:17;;;;;;;5.00;3.60;;;4.70;99.90;;;;;;5111302;28;20024;-43
2021/11/22 05:08:42;;;;;;;6.80;3.35;;;4.70;99.90;;;;;;5110309;28;20047;-42
2021/11/22 05:11:08;;;;;;;4.57;3.60;;;4.70;99.90;;;;;;5108724;28;20030;-44
2021/11/22 05:13:34;;;;;;;5.03;4.20;;;4.60;99.90;;;;;;5108389;28;20016;-42
2021/11/22 05:15:59;;;;;;;6.15;3.70;;;4.60;99.90;;;;;;5098161;28;20016;-43
2021/11/22 05:18:25;;;;;;;9.30;4.88;;;4.60;99.90;;;;;;5100202;28;20024;-42
2021/11/22 05:20:51;;;;;;;7.75;4.63;;;4.50;99.90;;;;;;5108973;28;20102;-43
2021/11/22 05:23:17;;;;;;;10.32;4.93;;;4.40;99.90;;;;;;5109362;28;20032;-41
2021/11/22 05:25:42;;;;;;;5.88;4.35;;;4.40;99.90;;;;;;5108332;28;20030;-42
2021/11/22 05:28:09;;;;;;;6.30;4.57;;;4.40;99.90;;;;;;5110727;28;20027;-43
2021/11/22 05:30:36;;;;;;;6.80;4.07;;;4.40;99.90;;;;;;5110200;28;20012;-45
2021/11/22 05:33:03;;;;;;;5.78;4.30;;;4.40;99.90;;;;;;5110645;28;20386;-42
2021/11/22 05:35:30;;;;;;;8.32;4.13;;;4.30;99.90;;;;;;5111001;28;20065;-43
2021/11/22 05:37:56;;;;;;;4.18;3.53;;;4.30;99.90;;;;;;5110876;28;20366;-43
2021/11/22 05:40:23;;;;;;;5.57;4.00;;;4.20;99.90;;;;;;5109634;28;20662;-42
2021/11/22 05:42:49;;;;;;;7.10;4.00;;;4.30;99.90;;;;;;5108794;28;20038;-42
2021/11/22 05:45:14;;;;;;;5.47;4.28;;;4.20;99.90;;;;;;5092156;27;20036;-42
2021/11/22 05:47:40;;;;;;;7.65;4.30;;;4.10;99.90;;;;;;5092502;28;20034;-42
2021/11/22 05:50:07;;;;;;;5.57;3.97;;;4.10;99.90;;;;;;5091093;28;20027;-42
2021/11/22 05:52:36;;;;;;;7.43;4.45;;;4.10;99.90;;;;;;5089716;28;20016;-44
2021/11/22 05:55:05;;;;;;;5.38;4.03;;;4.10;99.90;;;;;;5088423;28;20024;-43
2021/11/22 05:57:31;;;;;;;7.90;3.97;;;4.00;99.90;;;;;;5089808;28;20445;-43
2021/11/22 05:59:57;;;;;;;9.38;5.15;;;4.00;99.90;;;;;;5089014;28;20028;-43
2021/11/22 06:02:23;;;;;;;6.05;4.20;;;3.90;99.90;;;;;;5089508;28;20028;-42
2021/11/22 06:04:49;;;;;;;7.78;3.80;;;3.80;99.90;;;;;;5089701;28;20027;-43
2021/11/22 06:07:15;;;;;;;7.82;3.90;;;3.80;99.90;;;;;;5089704;28;20028;-42
2021/11/22 06:09:40;;;;;;;6.88;4.70;;;3.80;99.90;;;;;;5087198;28;20129;-43
2021/11/22 06:12:06;;;;;;;5.70;3.65;;;3.80;99.90;;;;;;5088221;28;20059;-42
2021/11/22 06:14:32;;;;;;;6.38;4.63;;;3.70;99.90;;;;;;5093210;28;20032;-42
2021/11/22 06:16:58;;;;;;;6.30;4.18;;;3.70;99.90;;;;;;5096822;28;20049;-42
2021/11/22 06:19:24;;;;;;;10.75;5.38;;;3.70;99.90;;;;;;5093582;28;20030;-42
2021/11/22 06:21:49;;;;;;;7.30;4.97;;;3.60;99.90;;;;;;5089123;28;20393;-42
2021/11/22 06:24:16;;;;;;;7.85;4.07;;;3.60;99.90;;;;;;5088589;28;20117;-41
2021/11/22 06:26:42;;;;;;;8.35;3.95;;;3.60;99.90;;;;;;5081394;28;20439;-42
2021/11/22 06:29:12;;;;;;;7.20;3.85;;;3.60;99.90;;;;;;5081081;28;20357;-42
2021/11/22 06:31:37;;;;;;;5.72;4.00;;;3.50;99.90;;;;;;5096002;28;20022;-43
2021/11/22 06:34:03;;;;;;;6.82;4.00;;;3.50;99.90;;;;;;5096364;28;20095;-43
2021/11/22 06:36:29;;;;;;;5.95;4.03;;;3.40;99.90;;;;;;5099448;28;20434;-42
2021/11/22 06:38:54;;;;;;;10.07;4.05;;;3.40;99.90;;;;;;5100323;28;20028;-42
2021/11/22 06:41:20;;;;;;;7.43;3.55;;;3.40;99.90;;;;;;5096688;28;20032;-41
2021/11/22 06:43:46;;;;;;;8.52;4.13;;;3.40;99.90;;;;;;5088213;28;20390;-41
2021/11/22 06:46:11;;;;;;;8.77;4.32;;;3.40;99.90;;;;;;5084237;28;20089;-42
2021/11/22 06:48:37;;;;;;;6.70;3.78;;;3.30;99.90;;;;;;5096746;28;20032;-41
2021/11/22 06:51:03;;;;;;;9.65;3.53;;;3.30;99.90;;;;;;5089158;28;20036;-42
2021/11/22 06:53:29;;;;;;;6.22;3.70;;;3.30;99.90;;;;;;5084089;28;20023;-42
2021/11/22 06:55:55;;;;;;;4.63;3.25;;;3.30;99.90;;;;;;5083757;28;20570;-42
2021/11/22 06:58:20;;;;;;;4.13;3.10;;;3.20;99.90;;;;;;5068396;28;20025;-42
2021/11/22 07:00:46;;;;;;;7.07;3.50;;;3.30;99.90;;;;;;5080410;28;20046;-43
2021/11/22 07:03:12;;;;;;;7.60;3.38;;;3.30;99.90;;;;;;5089469;28;20362;-43
2021/11/22 07:05:38;;;;;;;4.95;3.13;;;3.20;99.90;;;;;;5084311;28;20123;-43
2021/11/22 07:08:06;;;;;;;8.52;3.85;;;3.20;99.90;;;;;;5085214;28;20028;-43
2021/11/22 07:10:32;;;;;;;7.38;3.42;;;3.20;99.90;;;;;;5087555;28;20067;-43
2021/11/22 07:12:58;;;;;;;7.10;4.20;;;3.10;99.90;;;;;;5076330;28;20040;-42
2021/11/22 07:15:31;;;;;;;6.57;3.50;;;3.20;99.90;;;;;;5080825;28;20032;-42
2021/11/22 07:17:57;;;;;;;7.68;3.95;;;3.10;99.90;;;;;;5096307;28;20032;-43
2021/11/22 07:20:23;;;;;;;9.60;3.83;;;3.10;99.90;;;;;;5068744;28;20050;-42
2021/11/22 07:22:49;;;;;;;7.45;3.58;;;3.10;99.90;;;;;;5085871;28;20419;-41
2021/11/22 07:25:14;;;;;;;14.18;3.47;;;3.10;99.90;;;;;;5088701;28;20028;-42
2021/11/22 07:27:40;;;;;;;6.65;4.18;;;3.10;99.90;;;;;;5089460;28;20050;-43
2021/11/22 07:30:07;;;;;;;7.00;3.65;;;3.10;99.90;;;;;;5084818;28;20021;-43
2021/11/22 07:32:32;;;;;;;4.72;3.35;;;3.10;99.90;;;;;;5088636;28;20028;-43
2021/11/22 07:34:58;;;;;;;7.43;4.03;;;3.10;99.90;;;;;;5089455;28;20023;-43
2021/11/22 07:37:24;;;;;;;13.10;3.88;;;3.10;99.90;;;;;;5074155;28;20034;-43
2021/11/22 07:39:50;;;;;;;6.13;3.60;;;3.10;99.90;;;;;;5087027;28;20085;-41
2021/11/22 07:42:16;;;;;;;4.45;3.22;;;3.00;99.90;;;;;;5080476;28;20116;-43
2021/11/22 07:44:42;;;;;;;5.80;3.47;;;3.00;99.90;;;;;;5069083;28;20470;-42
2021/11/22 07:47:09;;;;;;;4.50;3.08;;;3.10;99.90;;;;;;5092954;28;20480;-42
2021/11/22 07:49:34;;;;;;;6.50;3.40;;;3.10;99.90;;;;;;5089734;28;20401;-43
2021/11/22 07:52:00;;;;;;;8.13;3.38;;;3.10;99.90;;;;;;5086457;28;20031;-43
2021/11/22 07:54:26;;;;;;;6.13;3.22;;;3.10;99.90;;;;;;5089005;28;20035;-44
2021/11/22 07:56:52;;;;;;;6.30;3.17;;;3.10;99.90;;;;;;5092142;28;20134;-42
2021/11/22 07:59:20;;;;;;;7.03;3.40;;;3.10;99.90;;;;;;5092861;28;20482;-43
2021/11/22 08:01:45;;;;;;;6.93;3.10;;;3.10;99.90;;;;;;5078801;28;20612;-42
2021/11/22 08:04:15;;;;;;;6.07;3.35;;;3.10;99.90;;;;;;5085357;28;20115;-43
2021/11/22 08:06:46;;;;;;;7.20;2.90;;;3.20;99.90;;;;;;5076638;28;20348;-42
2021/11/22 08:09:35;;;;;;;4.63;3.33;;;3.20;99.90;;;;;;5068761;28;20025;-43
2021/11/22 08:14:37;;;;;;;6.15;2.83;;;3.20;99.90;;;;;;5084205;28;20024;-43
2021/11/22 08:17:04;;;;;;;4.45;2.92;;;3.20;99.90;;;;;;5091291;28;20039;-43
2021/11/22 08:19:30;;;;;;;6.57;3.03;;;3.20;99.90;;;;;;5099998;28;20080;-43
2021/11/22 08:21:55;;;;;;;5.32;3.00;;;3.30;99.90;;;;;;5094931;28;20031;-42
2021/11/22 08:24:26;;;;;;;4.70;2.83;;;3.30;99.90;;;;;;5089260;28;20035;-43
2021/11/22 08:26:52;;;;;;;6.63;3.10;;;3.30;99.90;;;;;;5082566;28;20443;-43
2021/11/22 08:29:18;;;;;;;5.75;3.30;;;3.30;99.90;;;;;;5101930;28;20027;-43
2021/11/22 08:31:44;;;;;;;6.10;3.38;;;3.30;99.90;;;;;;5091248;28;20533;-43
2021/11/22 08:34:10;;;;;;;4.43;2.70;;;3.30;99.90;;;;;;5099594;28;20024;-44
2021/11/22 08:36:36;;;;;;;5.05;2.67;;;3.40;99.90;;;;;;5094040;28;20020;-43
2021/11/22 08:39:02;;;;;;;6.10;3.25;;;3.40;99.90;;;;;;5071666;28;20025;-44
2021/11/22 08:41:28;;;;;;;4.10;2.67;;;3.50;99.90;;;;;;5071806;28;20520;-43
2021/11/22 08:43:54;;;;;;;4.22;2.78;;;3.50;99.90;;;;;;5077447;28;20025;-43
2021/11/22 08:46:19;;;;;;;3.90;2.50;;;3.50;99.90;;;;;;5082083;28;20027;-43
2021/11/22 08:48:45;;;;;;;5.85;2.40;;;3.50;99.90;;;;;;5095662;28;20484;-44
2021/11/22 08:51:11;;;;;;;3.95;2.38;;;3.60;99.90;;;;;;5091930;28;20027;-43
2021/11/22 08:53:36;;;;;;;3.60;2.40;;;3.60;99.90;;;;;;5100406;28;20103;-40
2021/11/22 08:56:03;;;;;;;4.13;2.20;;;3.60;99.90;;;;;;5102332;28;20622;-43
2021/11/22 08:58:28;;;;;;;4.00;2.25;;;3.70;99.90;;;;;;5097737;28;20016;-43
2021/11/22 09:00:54;;;;;;;4.43;2.47;;;3.70;99.90;;;;;;5102588;28;20023;-43
2021/11/22 09:03:20;;;;;;;2.78;2.03;;;3.70;99.90;;;;;;5103457;28;20020;-43
2021/11/22 09:05:45;;;;;;;3.53;1.98;;;3.80;99.90;;;;;;5094000;28;20031;-43
2021/11/22 09:08:12;;;;;;;4.30;2.20;;;3.80;99.90;;;;;;5093363;28;20024;-43
2021/11/22 09:10:38;;;;;;;6.00;2.17;;;3.90;99.90;;;;;;5099569;28;20322;-44
2021/11/22 09:13:04;;;;;;;3.88;1.90;;;3.90;99.90;;;;;;5088555;28;20016;-43
2021/11/22 09:15:31;;;;;;;3.00;1.95;;;4.00;99.90;;;;;;5099220;28;20093;-43
2021/11/22 09:17:57;;;;;;;3.80;2.10;;;4.00;99.90;;;;;;5098835;28;20081;-43
2021/11/22 09:20:23;;;;;;;3.55;2.13;;;4.10;99.90;;;;;;5109906;28;20085;-43
2021/11/22 09:22:49;;;;;;;2.08;1.83;;;4.10;99.90;;;;;;5091497;28;20036;-44
2021/11/22 09:25:15;;;;;;;2.75;2.15;;;4.10;99.90;;;;;;5084588;28;20031;-45
2021/11/22 09:27:41;;;;;;;2.85;1.80;;;4.20;99.90;;;;;;5070999;28;20669;-43
2021/11/22 09:30:08;;;;;;;4.03;2.47;;;4.30;99.90;;;;;;5083727;28;20067;-43
2021/11/22 09:32:34;;;;;;;3.30;2.10;;;4.30;99.90;;;;;;5084409;28;20028;-43
2021/11/22 09:34:59;;;;;;;4.22;1.77;;;4.30;99.90;;;;;;5089394;28;20016;-43
2021/11/22 09:37:25;;;;;;;2.47;1.60;;;4.40;99.90;;;;;;5089439;28;20108;-44
2021/11/22 09:39:52;;;;;;;4.45;1.80;;;4.40;99.90;;;;;;5087863;28;20067;-44
2021/11/22 09:42:18;;;;;;;2.95;1.45;;;4.50;99.90;;;;;;5088209;28;20020;-43
2021/11/22 09:44:44;;;;;;;2.97;1.40;;;4.60;99.90;;;;;;5089516;28;20028;-44
2021/11/22 09:47:10;;;;;;;2.30;1.50;;;4.70;99.90;;;;;;5089358;28;20028;-44
2021/11/22 09:49:36;;;;;;;3.97;1.60;;;4.70;99.90;;;;;;5089396;28;20028;-44
2021/11/22 09:52:04;;;;;;;2.95;1.20;;;4.80;99.90;;;;;;5089901;28;20048;-44
2021/11/22 09:54:29;;;;;;;5.00;1.40;;;4.90;99.90;;;;;;5089659;28;20522;-44
2021/11/22 09:56:55;;;;;;;3.25;1.67;;;4.90;99.90;;;;;;5089214;27;20111;-44
2021/11/22 09:59:22;;;;;;;2.33;1.50;;;5.00;99.90;;;;;;5090506;28;20019;-43
2021/11/22 10:01:52;;;;;;;2.58;1.55;;;5.10;99.90;;;;;;5096271;28;20055;-43
2021/11/22 10:04:19;;;;;;;2.35;1.50;;;5.20;99.90;;;;;;5088246;28;20060;-44
2021/11/22 10:06:52;;;;;;;5.82;1.50;;;5.30;99.90;;;;;;5090181;28;20584;-43
2021/11/22 10:09:44;;;;;;;2.22;1.73;;;5.50;99.90;;;;;;5085769;28;20031;-44
2021/11/22 10:12:12;;;;;;;3.25;1.60;;;6.20;99.90;;;;;;5087401;28;20012;-45
2021/11/22 10:14:56;;;;;;;2.78;1.35;;;7.80;99.90;;;;;;5081557;28;20032;-45
2021/11/22 10:17:40;;;;;;;3.63;1.42;;;9.90;99.90;;;;;;5090326;28;20534;-47
2021/11/22 10:20:09;;;;;;;2.40;1.23;;;12.00;99.90;;;;;;5089741;28;20060;-45
2021/11/22 10:23:00;;;;;;;1.77;1.15;;;13.50;95.00;;;;;;5087256;28;20543;-45
2021/11/22 10:25:35;;;;;;;3.58;1.30;;;14.90;89.60;;;;;;5089176;28;20030;-45
2021/11/22 10:28:12;;;;;;;2.35;1.10;;;15.90;80.10;;;;;;5089815;28;20020;-45
2021/11/22 10:30:42;;;;;;;1.75;1.17;;;16.80;74.90;;;;;;5087318;28;20016;-46
2021/11/22 10:33:10;;;;;;;5.00;1.13;;;17.20;72.30;;;;;;5089601;28;20012;-47
2021/11/22 10:35:37;;;;;;;2.22;1.08;;;17.50;68.90;;;;;;5089625;28;20020;-44
2021/11/22 10:38:10;;;;;;;4.00;1.15;;;17.00;66.40;;;;;;5088285;28;20019;-43
2021/11/22 10:40:40;;;;;;;5.15;1.25;;;16.80;67.10;;;;;;5085388;28;20036;-44
2021/11/22 10:43:07;;;;;;;2.30;1.00;;;15.90;67.40;;;;;;5086234;28;20032;-44
2021/11/22 10:45:56;;;;;;;2.03;1.10;;;15.80;67.30;;;;;;5093166;28;20272;-44
2021/11/22 10:51:00;;;;;;;1.42;1.10;;;17.10;65.40;;;;;;5086749;28;20080;-44
2021/11/22 10:53:34;;;;;;;1.60;1.17;;;17.70;63.60;;;;;;5087940;28;20012;-46
2021/11/22 10:56:01;;;;;;;3.05;1.00;;;18.00;60.70;;;;;;5096117;28;20107;-45
2021/11/22 10:58:38;;;;;;;1.98;0.98;;;18.10;62.40;;;;;;5085113;28;20051;-44
2021/11/22 11:01:39;;;;;;;1.90;1.23;;;18.30;62.40;;;;;;5085541;28;20020;-44
2021/11/22 11:04:12;;;;;;;7.22;1.33;;;18.10;61.00;;;;;;5085771;28;20024;-44
2021/11/22 11:06:39;;;;;;;2.55;0.82;;;17.90;60.30;;;;;;5086905;28;20020;-46
2021/11/22 11:09:07;;;;;;;3.20;1.23;;;17.90;61.00;;;;;;5086227;28;20048;-48
2021/11/22 11:11:33;;;;;;;3.20;0.82;;;18.10;59.70;;;;;;5081938;28;20031;-45
2021/11/22 11:14:04;;;;;;;2.55;0.90;;;18.10;59.50;;;;;;5087562;28;20069;-45
2021/11/22 11:16:30;;;;;;;2.15;0.77;;;18.00;59.00;;;;;;5085536;28;20039;-44
2021/11/22 11:18:57;;;;;;;2.25;0.75;;;17.90;60.10;;;;;;5101612;28;20024;-45
2021/11/22 11:21:29;;;;;;;1.70;0.90;;;17.90;58.40;;;;;;5093198;28;20123;-46
2021/11/22 11:23:56;;;;;;;1.35;0.88;;;17.60;59.50;;;;;;5067604;28;20021;-46
2021/11/22 11:26:24;;;;;;;1.70;0.93;;;18.20;58.10;;;;;;5087590;28;20385;-44
2021/11/22 11:28:50;;;;;;;1.45;0.70;;;17.60;58.30;;;;;;5090692;28;20547;-44
2021/11/22 11:31:16;;;;;;;1.67;0.77;;;18.10;57.40;;;;;;5092074;28;20485;-44
2021/11/22 11:33:42;;;;;;;2.42;0.73;;;17.70;58.40;;;;;;5087704;28;20047;-45
2021/11/22 11:36:49;;;;;;;1.50;1.10;;;17.30;58.00;;;;;;5079527;28;20020;-45
2021/11/22 11:39:21;;;;;;;2.40;0.93;;;17.10;59.10;;;;;;5075613;28;20097;-45
2021/11/22 11:41:56;;;;;;;2.13;0.80;;;17.40;60.40;;;;;;5079721;28;20117;-44
2021/11/22 11:44:49;;;;;;;4.72;0.93;;;17.40;58.60;;;;;;5068373;28;20645;-45
2021/11/22 11:47:21;;;;;;;2.45;0.80;;;17.20;59.00;;;;;;5102688;28;20027;-45
2021/11/22 11:49:47;;;;;;;2.17;1.00;;;16.90;60.40;;;;;;5087362;28;20055;-44
2021/11/22 11:52:30;;;;;;;1.58;0.98;;;16.40;61.10;;;;;;5075740;28;20446;-45
2021/11/22 11:54:57;;;;;;;2.95;0.90;;;16.50;59.80;;;;;;5092574;28;20015;-45
2021/11/22 11:57:25;;;;;;;1.92;1.00;;;16.40;60.20;;;;;;5077094;28;20485;-44
2021/11/22 11:59:52;;;;;;;2.45;0.93;;;16.40;60.90;;;;;;5073251;28;20028;-44
2021/11/22 12:02:24;;;;;;;3.22;0.90;;;16.00;61.60;;;;;;5070501;28;20032;-46
2021/11/22 12:04:57;;;;;;;4.05;0.90;;;15.30;61.80;;;;;;5085168;28;20024;-45
2021/11/22 12:07:39;;;;;;;0.98;0.60;;;15.10;63.50;;;;;;5090952;28;20170;-44
2021/11/22 12:10:24;;;;;;;2.35;0.75;;;14.20;64.90;;;;;;5088824;28;20121;-44
2021/11/22 12:13:04;;;;;;;1.70;0.82;;;13.50;67.30;;;;;;5090819;28;20060;-44
2021/11/22 12:15:43;;;;;;;2.92;0.85;;;12.70;69.70;;;;;;5088617;28;20358;-44
2021/11/22 12:18:23;;;;;;;1.02;0.80;;;12.10;72.10;;;;;;5092020;28;20115;-43
2021/11/22 12:20:52;;;;;;;1.15;0.60;;;11.50;73.90;;;;;;5090840;28;20035;-46
2021/11/22 12:23:21;;;;;;;1.13;0.60;;;10.90;74.10;;;;;;5086662;28;20351;-43
2021/11/22 12:25:53;;;;;;;1.35;0.85;;;10.50;75.60;;;;;;5088390;28;20115;-45
2021/11/22 12:28:19;;;;;;;2.22;1.00;;;10.10;78.80;;;;;;5097907;28;20028;-43
2021/11/22 12:30:50;;;;;;;1.83;0.80;;;9.80;79.80;;;;;;5090737;28;20486;-44
2021/11/22 12:33:25;;;;;;;5.82;1.15;;;9.50;82.50;;;;;;5072341;28;20593;-44
2021/11/22 12:36:24;;;;;;;2.65;0.77;;;9.10;84.20;;;;;;5078305;28;20052;-43
2021/11/22 12:38:51;;;;;;;4.55;1.08;;;8.90;83.60;;;;;;5090127;28;20038;-43
2021/11/22 12:41:22;;;;;;;2.65;0.88;;;8.70;84.90;;;;;;5099119;28;20039;-43
2021/11/22 12:44:05;;;;;;;2.30;0.65;;;8.50;86.10;;;;;;5053269;28;20039;-43
2021/11/22 12:46:56;;;;;;;1.13;0.70;;;8.30;87.90;;;;;;5083022;28;20028;-46
2021/11/22 12:49:44;;;;;;;4.57;1.45;;;8.20;89.20;;;;;;5097786;28;20043;-43
2021/11/22 12:52:25;;;;;;;3.08;1.30;;;8.10;90.90;;;;;;5086050;28;20016;-43
2021/11/22 12:55:00;;;;;;;3.75;0.95;;;8.00;92.20;;;;;;5090923;28;20408;-43
2021/11/22 12:57:29;;;;;;;8.45;1.40;;;7.90;91.10;;;;;;5084989;28;20026;-42
2021/11/22 13:00:44;;;;;;;3.05;0.85;;;7.80;92.20;;;;;;5096178;28;20027;-43
2021/11/22 13:03:13;;;;;;;2.40;0.85;;;7.80;93.80;;;;;;5069379;28;20044;-43
2021/11/22 13:05:41;;;;;;;4.15;0.80;;;7.80;94.30;;;;;;5071685;28;20048;-44